Time;durP1;ratioP1;P1;durP2;ratioP2;P2;SDS_P1;SDS_P2;PMS_P1;PMS_P2;Temp;Humidity;BMP_temperature;BMP_pressure;BME280_temperature;BME280_humidity;BME280_pressure;Samples;Min_cycle;Max_cycle;Signal;HPM_P1;HPM_P2
2022/04/09 00:00:24;;;;;;;0.57;0.40;;;11.80;68.20;;;;;;5100655;28;20027;-79
2022/04/09 00:02:50;;;;;;;0.38;0.32;;;11.90;67.40;;;;;;5085435;28;20016;-79
2022/04/09 00:05:16;;;;;;;0.82;0.30;;;12.00;67.00;;;;;;5104630;28;20088;-80
2022/04/09 00:07:43;;;;;;;2.05;0.50;;;12.00;66.70;;;;;;5095844;28;20050;-79
2022/04/09 00:10:11;;;;;;;1.10;0.45;;;12.10;65.90;;;;;;5104977;28;20036;-79
2022/04/09 00:12:38;;;;;;;0.43;0.40;;;12.30;65.50;;;;;;5105095;28;20031;-80
2022/04/09 00:15:06;;;;;;;1.20;0.38;;;12.30;65.10;;;;;;5104623;28;20035;-78
2022/04/09 00:17:37;;;;;;;1.25;0.50;;;12.40;64.80;;;;;;5103915;28;20028;-80
2022/04/09 00:20:03;;;;;;;2.17;0.30;;;12.50;64.90;;;;;;5085814;28;20074;-79
2022/04/09 00:22:30;;;;;;;0.88;0.30;;;12.50;65.10;;;;;;5086177;28;20020;-79
2022/04/09 00:24:56;;;;;;;2.65;0.95;;;12.50;65.00;;;;;;5105152;28;20047;-79
2022/04/09 00:27:21;;;;;;;0.63;0.32;;;12.60;65.00;;;;;;5105451;28;20020;-79
2022/04/09 00:29:47;;;;;;;1.40;0.40;;;12.80;65.00;;;;;;5086341;28;20446;-79
2022/04/09 00:32:13;;;;;;;1.17;0.38;;;12.80;65.50;;;;;;5105217;28;20032;-79
2022/04/09 00:34:39;;;;;;;1.17;0.57;;;12.90;68.00;;;;;;5104266;28;20032;-79
2022/04/09 00:37:04;;;;;;;3.05;0.52;;;12.80;69.60;;;;;;5098163;28;20381;-79
2022/04/09 00:39:30;;;;;;;1.48;0.40;;;12.70;71.10;;;;;;5103140;28;20024;-79
2022/04/09 00:41:56;;;;;;;4.10;0.57;;;12.60;72.10;;;;;;5103943;28;20496;-79
2022/04/09 00:44:21;;;;;;;0.95;0.47;;;12.50;73.50;;;;;;5103478;28;20038;-78
2022/04/09 00:46:47;;;;;;;0.45;0.43;;;12.40;74.60;;;;;;5087259;28;20384;-79
2022/04/09 00:49:14;;;;;;;4.13;0.90;;;12.30;76.90;;;;;;5103979;28;20020;-79
2022/04/09 00:51:41;;;;;;;1.58;0.60;;;12.10;80.10;;;;;;5103263;28;20020;-78
2022/04/09 00:54:10;;;;;;;1.17;0.50;;;11.90;83.30;;;;;;5103070;28;20046;-79
2022/04/09 00:56:37;;;;;;;0.90;0.47;;;11.70;85.80;;;;;;5086290;28;20052;-78
2022/04/09 00:59:06;;;;;;;0.75;0.50;;;11.40;88.40;;;;;;5105132;28;20024;-78
2022/04/09 01:01:37;;;;;;;0.88;0.40;;;11.20;91.00;;;;;;5104232;28;20095;-79
2022/04/09 01:04:11;;;;;;;1.02;0.30;;;10.90;92.50;;;;;;5083440;28;20099;-78
2022/04/09 01:06:38;;;;;;;2.25;0.43;;;10.70;93.60;;;;;;5100760;28;20107;-79
2022/04/09 01:09:05;;;;;;;1.55;0.40;;;10.50;94.40;;;;;;5100190;28;20126;-79
2022/04/09 01:11:32;;;;;;;1.58;0.40;;;10.30;95.70;;;;;;5103886;28;20024;-79
2022/04/09 01:13:58;;;;;;;0.63;0.30;;;10.10;96.70;;;;;;5087686;28;20024;-78
2022/04/09 01:16:28;;;;;;;9.45;0.60;;;10.00;97.60;;;;;;5091197;28;20020;-78
2022/04/09 01:18:55;;;;;;;5.88;0.60;;;9.80;97.50;;;;;;5115727;28;20012;-79
2022/04/09 01:21:26;;;;;;;0.80;0.50;;;8.70;99.90;;;;;;5112389;28;20245;-80
2022/04/09 01:23:53;;;;;;;2.10;0.40;;;7.90;99.90;;;;;;5106228;28;20043;-80
2022/04/09 01:26:20;;;;;;;2.92;0.32;;;7.50;99.90;;;;;;5092877;28;20020;-79
2022/04/09 01:28:47;;;;;;;0.57;0.40;;;7.20;99.90;;;;;;5110534;28;20061;-79
2022/04/09 01:31:13;;;;;;;4.78;1.85;;;7.00;99.90;;;;;;5110058;28;20020;-79
2022/04/09 01:33:39;;;;;;;1.90;0.60;;;6.80;99.90;;;;;;5091986;28;20030;-80
2022/04/09 01:36:05;;;;;;;1.45;0.55;;;6.70;99.90;;;;;;5112623;28;20055;-79
2022/04/09 01:38:31;;;;;;;0.28;0.10;;;6.50;99.90;;;;;;5113479;28;20024;-80
2022/04/09 01:40:56;;;;;;;0.50;0.10;;;6.50;99.90;;;;;;5095062;28;20035;-80
2022/04/09 01:43:22;;;;;;;0.45;0.20;;;6.40;99.90;;;;;;5107971;28;20087;-80
2022/04/09 01:45:48;;;;;;;2.65;0.20;;;6.30;99.90;;;;;;5110475;28;20020;-80
2022/04/09 01:48:17;;;;;;;0.20;0.20;;;6.30;99.90;;;;;;5095057;28;20024;-83
2022/04/09 01:50:45;;;;;;;0.20;0.20;;;6.30;99.90;;;;;;5107645;28;20154;-80
2022/04/09 01:53:10;;;;;;;0.82;0.40;;;6.30;99.90;;;;;;5103097;28;20476;-80
2022/04/09 01:55:37;;;;;;;4.80;0.35;;;6.20;99.90;;;;;;5106819;28;20055;-82
2022/04/09 01:58:03;;;;;;;0.43;0.20;;;6.20;99.90;;;;;;5089903;28;20024;-80
2022/04/09 02:00:29;;;;;;;0.30;0.30;;;6.10;99.90;;;;;;5109733;28;20023;-80
2022/04/09 02:02:55;;;;;;;2.60;0.25;;;6.00;99.90;;;;;;5090007;28;20100;-79
2022/04/09 02:05:20;;;;;;;0.35;0.20;;;5.70;99.90;;;;;;5088074;28;20024;-79
2022/04/09 02:07:47;;;;;;;0.25;0.10;;;5.50;99.90;;;;;;5103741;28;20091;-81
2022/04/09 02:10:14;;;;;;;0.70;0.15;;;5.30;99.90;;;;;;5106486;28;20016;-79
2022/04/09 02:12:40;;;;;;;0.17;0.17;;;5.00;99.90;;;;;;5108431;28;20024;-79
2022/04/09 02:15:09;;;;;;;0.63;0.20;;;4.80;99.90;;;;;;5090957;28;20036;-80
2022/04/09 02:17:36;;;;;;;0.45;0.20;;;4.70;99.90;;;;;;5108094;28;20067;-80
2022/04/09 02:20:07;;;;;;;0.00;0.00;;;4.50;99.90;;;;;;5091680;28;20049;-80
2022/04/09 02:22:37;;;;;;;0.00;0.00;;;4.30;99.90;;;;;;5115073;28;20024;-80
2022/04/09 02:25:04;;;;;;;1.50;0.20;;;4.10;99.90;;;;;;5112758;28;20020;-79
2022/04/09 02:27:30;;;;;;;1.15;0.10;;;3.80;99.90;;;;;;5113747;28;20032;-80
2022/04/09 02:29:56;;;;;;;0.10;0.10;;;3.50;99.90;;;;;;5112688;28;20032;-80
2022/04/09 02:32:21;;;;;;;0.20;0.15;;;3.20;99.90;;;;;;5111084;28;20028;-80
2022/04/09 02:34:49;;;;;;;1.27;0.40;;;3.00;99.90;;;;;;5114369;22;20048;-80
2022/04/09 02:37:15;;;;;;;0.35;0.25;;;2.80;99.90;;;;;;5085179;28;20472;-81
2022/04/09 02:39:42;;;;;;;0.43;0.43;;;2.70;99.90;;;;;;5083697;28;20028;-81
2022/04/09 02:42:08;;;;;;;1.00;0.50;;;2.70;99.90;;;;;;5085417;28;20016;-81
2022/04/09 02:44:34;;;;;;;0.98;0.68;;;2.60;99.90;;;;;;5085766;28;20016;-80
2022/04/09 02:46:59;;;;;;;0.60;0.60;;;2.60;99.90;;;;;;5087159;28;20021;-79
2022/04/09 02:49:25;;;;;;;0.60;0.60;;;2.60;99.90;;;;;;5087774;28;20025;-80
2022/04/09 02:51:51;;;;;;;1.02;0.98;;;2.60;99.90;;;;;;5081913;28;20058;-80
2022/04/09 02:54:17;;;;;;;0.90;0.90;;;2.60;99.90;;;;;;5078399;28;20044;-80
2022/04/09 02:56:44;;;;;;;0.88;0.88;;;2.50;99.90;;;;;;5061862;28;20036;-81
2022/04/09 02:59:13;;;;;;;1.27;1.15;;;2.50;99.90;;;;;;5084492;28;20109;-80
2022/04/09 03:01:41;;;;;;;1.13;1.05;;;2.50;99.90;;;;;;5068419;28;20044;-80
2022/04/09 03:04:07;;;;;;;1.35;1.25;;;2.50;99.90;;;;;;5080664;28;20017;-80
2022/04/09 03:06:33;;;;;;;1.42;1.33;;;2.50;99.90;;;;;;5064353;28;20051;-80
2022/04/09 03:08:58;;;;;;;1.33;1.23;;;2.50;99.90;;;;;;5063686;28;20025;-81
2022/04/09 03:11:24;;;;;;;1.60;1.45;;;2.50;99.90;;;;;;5081028;28;20028;-80
2022/04/09 03:13:50;;;;;;;1.40;1.30;;;2.50;99.90;;;;;;5066810;28;20054;-80
2022/04/09 03:16:16;;;;;;;1.98;1.88;;;2.50;99.90;;;;;;5083907;28;20035;-80
2022/04/09 03:18:41;;;;;;;1.77;1.67;;;2.50;99.90;;;;;;5083507;28;20032;-80
2022/04/09 03:21:07;;;;;;;2.13;1.55;;;2.60;99.90;;;;;;5083932;28;20078;-81
2022/04/09 03:23:33;;;;;;;1.45;1.35;;;2.60;99.90;;;;;;5064364;28;20043;-81
2022/04/09 03:25:59;;;;;;;2.13;1.98;;;2.60;99.90;;;;;;5082594;28;20024;-81
2022/04/09 03:28:26;;;;;;;1.42;1.35;;;2.60;99.90;;;;;;5081880;28;20024;-81
2022/04/09 03:30:51;;;;;;;1.52;1.42;;;2.60;99.90;;;;;;5081220;28;20025;-81
2022/04/09 03:33:18;;;;;;;2.25;2.00;;;2.50;99.90;;;;;;5064701;28;20138;-80
2022/04/09 03:35:44;;;;;;;4.32;1.92;;;2.50;99.90;;;;;;5080922;28;20033;-81
2022/04/09 03:38:11;;;;;;;2.05;1.90;;;2.50;99.90;;;;;;5061352;28;20071;-80
2022/04/09 03:40:38;;;;;;;2.40;2.20;;;2.50;99.90;;;;;;5062954;28;20092;-81
2022/04/09 03:43:03;;;;;;;2.78;2.58;;;2.50;99.90;;;;;;5082264;28;20020;-80
2022/04/09 03:45:29;;;;;;;2.20;2.00;;;2.50;99.90;;;;;;5079614;28;20516;-80
2022/04/09 03:47:55;;;;;;;3.28;2.97;;;2.60;99.90;;;;;;5077720;28;20096;-80
2022/04/09 03:50:21;;;;;;;3.28;2.90;;;2.60;99.90;;;;;;5062158;28;20027;-80
2022/04/09 03:52:46;;;;;;;4.75;3.80;;;2.70;99.90;;;;;;5093084;28;20013;-81
2022/04/09 03:55:13;;;;;;;4.35;3.20;;;2.80;99.90;;;;;;5087624;28;20029;-79
2022/04/09 03:57:39;;;;;;;3.95;3.10;;;2.80;99.90;;;;;;5092045;28;20016;-80
2022/04/09 04:00:05;;;;;;;5.93;3.60;;;2.80;99.90;;;;;;5096315;28;20060;-78
2022/04/09 04:02:31;;;;;;;3.92;3.55;;;2.80;99.90;;;;;;5096563;28;20080;-80
2022/04/09 04:05:02;;;;;;;3.60;3.30;;;2.80;99.90;;;;;;5096276;28;20027;-80
2022/04/09 04:07:29;;;;;;;4.88;3.28;;;2.80;99.90;;;;;;5096015;28;20008;-80
2022/04/09 04:09:54;;;;;;;3.92;3.53;;;2.80;99.90;;;;;;5076089;28;20033;-81
2022/04/09 04:12:20;;;;;;;3.70;3.33;;;2.80;99.90;;;;;;5073318;28;20031;-79
2022/04/09 04:14:46;;;;;;;3.67;3.30;;;2.80;99.90;;;;;;5089627;28;20112;-81
2022/04/09 04:17:12;;;;;;;4.15;3.70;;;2.80;99.90;;;;;;5086804;28;20025;-81
2022/04/09 04:19:39;;;;;;;5.65;3.78;;;2.80;99.90;;;;;;5067577;28;20033;-81
2022/04/09 04:22:05;;;;;;;4.72;3.58;;;2.80;99.90;;;;;;5067391;28;20033;-78
2022/04/09 04:24:31;;;;;;;3.75;3.45;;;2.80;99.90;;;;;;5066779;28;20434;-81
2022/04/09 04:26:57;;;;;;;4.28;3.75;;;2.80;99.90;;;;;;5083674;28;20035;-81
2022/04/09 04:29:22;;;;;;;4.20;3.22;;;2.80;99.90;;;;;;5066585;28;20088;-81
2022/04/09 04:31:48;;;;;;;4.93;4.35;;;2.80;99.90;;;;;;5084727;28;20024;-81
2022/04/09 04:34:14;;;;;;;4.97;4.18;;;2.80;99.90;;;;;;5084615;28;20032;-81
2022/04/09 04:36:40;;;;;;;4.00;3.47;;;2.90;99.90;;;;;;5084912;28;20199;-80
2022/04/09 04:39:05;;;;;;;4.90;4.40;;;2.90;99.90;;;;;;5082978;28;20037;-81
2022/04/09 04:41:31;;;;;;;4.00;3.60;;;2.90;99.90;;;;;;5082312;28;20035;-79
2022/04/09 04:43:57;;;;;;;4.88;3.70;;;2.90;99.90;;;;;;5088648;28;20032;-80
2022/04/09 04:46:22;;;;;;;5.43;3.90;;;2.90;99.90;;;;;;5085950;28;20436;-81
2022/04/09 04:48:48;;;;;;;5.30;4.10;;;2.90;99.90;;;;;;5084398;28;20044;-79
2022/04/09 04:51:14;;;;;;;5.75;3.75;;;2.90;99.90;;;;;;5084775;28;20220;-80
2022/04/09 04:53:40;;;;;;;5.13;4.13;;;2.90;99.90;;;;;;5067828;28;20028;-80
2022/04/09 04:56:05;;;;;;;5.68;4.30;;;2.90;99.90;;;;;;5087182;28;20055;-80
2022/04/09 04:58:31;;;;;;;4.97;3.85;;;2.90;99.90;;;;;;5087351;28;20028;-80
2022/04/09 05:00:57;;;;;;;4.30;3.63;;;2.90;99.90;;;;;;5086822;28;20023;-81
2022/04/09 05:03:22;;;;;;;7.47;4.53;;;2.90;99.90;;;;;;5087167;28;20017;-80
2022/04/09 05:05:48;;;;;;;5.75;3.75;;;3.00;99.90;;;;;;5087141;28;20052;-80
2022/04/09 05:08:14;;;;;;;6.30;4.53;;;3.00;99.90;;;;;;5086742;28;20025;-80
2022/04/09 05:10:39;;;;;;;6.60;4.07;;;3.00;99.90;;;;;;5070185;28;20031;-80
2022/04/09 05:13:05;;;;;;;5.57;4.72;;;3.00;99.90;;;;;;5087830;28;20020;-80
2022/04/09 05:15:31;;;;;;;5.45;4.35;;;3.10;99.90;;;;;;5070370;28;20028;-80
2022/04/09 05:17:57;;;;;;;11.13;5.10;;;3.20;99.90;;;;;;5087552;28;20095;-79
2022/04/09 05:20:23;;;;;;;6.97;4.18;;;3.20;99.90;;;;;;5090139;28;20033;-80
2022/04/09 05:22:49;;;;;;;7.25;5.30;;;3.20;99.90;;;;;;5067950;28;20080;-80
2022/04/09 05:25:19;;;;;;;5.45;4.28;;;3.20;99.90;;;;;;5084481;28;20024;-80
2022/04/09 05:27:45;;;;;;;7.00;5.47;;;3.20;99.90;;;;;;5084596;28;20025;-81
2022/04/09 05:30:11;;;;;;;7.15;5.40;;;3.20;99.90;;;;;;5085436;28;20115;-81
2022/04/09 05:32:39;;;;;;;5.68;4.63;;;3.20;99.90;;;;;;5065922;28;20082;-79
2022/04/09 05:35:09;;;;;;;6.30;5.07;;;3.20;99.90;;;;;;5084414;28;20036;-79
2022/04/09 05:37:35;;;;;;;8.38;5.25;;;3.20;99.90;;;;;;5083362;28;20032;-79
2022/04/09 05:40:01;;;;;;;6.13;4.85;;;3.20;99.90;;;;;;5083406;28;20020;-79
2022/04/09 05:42:27;;;;;;;7.97;5.75;;;3.20;99.90;;;;;;5065294;28;20064;-79
2022/04/09 05:44:53;;;;;;;9.65;5.95;;;3.20;99.90;;;;;;5084001;28;20020;-80
2022/04/09 05:47:19;;;;;;;7.07;5.90;;;3.20;99.90;;;;;;5067964;28;20033;-80
2022/04/09 05:49:45;;;;;;;8.18;6.32;;;3.20;99.90;;;;;;5086480;28;20031;-80
2022/04/09 05:52:10;;;;;;;9.32;6.63;;;3.20;99.90;;;;;;5085509;28;20139;-79
2022/04/09 05:54:36;;;;;;;9.98;6.63;;;3.20;99.90;;;;;;5084398;28;20063;-79
2022/04/09 05:57:03;;;;;;;9.27;7.03;;;3.20;99.90;;;;;;5083915;28;20111;-79
2022/04/09 05:59:30;;;;;;;9.60;7.07;;;3.20;99.90;;;;;;5064788;28;20044;-79
2022/04/09 06:01:56;;;;;;;10.85;7.20;;;3.20;99.90;;;;;;5083220;28;20039;-79
2022/04/09 06:04:22;;;;;;;14.95;7.70;;;3.20;99.90;;;;;;5083327;28;20039;-80
2022/04/09 06:06:48;;;;;;;11.73;7.63;;;3.30;99.90;;;;;;5083106;28;20020;-80
2022/04/09 06:09:15;;;;;;;9.30;7.57;;;3.30;99.90;;;;;;5082975;28;20025;-79
2022/04/09 06:11:42;;;;;;;9.57;7.32;;;3.30;99.90;;;;;;5082730;28;20040;-80
2022/04/09 06:14:09;;;;;;;9.55;7.57;;;3.30;99.90;;;;;;5082129;28;20025;-80
2022/04/09 06:16:38;;;;;;;11.75;7.55;;;3.40;99.90;;;;;;5081947;28;20028;-79
2022/04/09 06:19:07;;;;;;;9.07;6.85;;;3.40;99.90;;;;;;5080739;28;20017;-79
2022/04/09 06:21:33;;;;;;;9.98;6.65;;;3.50;99.90;;;;;;5080440;28;20044;-79
2022/04/09 06:24:00;;;;;;;10.82;6.45;;;3.60;99.90;;;;;;5079466;28;20103;-78
2022/04/09 06:26:27;;;;;;;9.30;6.40;;;3.70;99.90;;;;;;5079710;28;20028;-78
2022/04/09 06:28:52;;;;;;;10.93;7.43;;;3.80;99.90;;;;;;5080208;28;20393;-78
2022/04/09 06:31:18;;;;;;;10.00;6.88;;;3.80;99.90;;;;;;5080760;28;20032;-79
2022/04/09 06:33:44;;;;;;;9.25;6.53;;;3.80;99.90;;;;;;5080992;28;20038;-80
2022/04/09 06:36:10;;;;;;;9.68;6.95;;;3.70;99.90;;;;;;5079109;28;20039;-79
2022/04/09 06:38:35;;;;;;;7.78;6.05;;;3.70;99.90;;;;;;5079120;28;20036;-78
2022/04/09 06:41:01;;;;;;;7.70;5.90;;;3.80;99.90;;;;;;5080967;28;20031;-80
2022/04/09 06:43:27;;;;;;;9.70;6.10;;;3.90;99.90;;;;;;5062532;28;20028;-80
2022/04/09 06:45:52;;;;;;;8.23;6.05;;;4.00;99.90;;;;;;5082088;28;20044;-80
2022/04/09 06:48:18;;;;;;;7.65;5.30;;;4.20;99.90;;;;;;5079724;28;20020;-79
2022/04/09 06:50:44;;;;;;;7.00;5.90;;;4.50;99.90;;;;;;5080538;28;20147;-79
2022/04/09 06:53:10;;;;;;;9.52;5.68;;;4.50;99.90;;;;;;5080807;28;20075;-78
2022/04/09 06:55:36;;;;;;;7.57;5.72;;;4.50;99.90;;;;;;5061223;28;20029;-79
2022/04/09 06:58:02;;;;;;;5.50;5.00;;;4.40;99.90;;;;;;5079641;28;20017;-78
2022/04/09 07:00:29;;;;;;;9.70;6.88;;;4.30;99.90;;;;;;5078504;28;20056;-79
2022/04/09 07:02:55;;;;;;;7.72;6.10;;;4.20;99.90;;;;;;5080375;28;20040;-79
2022/04/09 07:05:21;;;;;;;7.90;6.65;;;4.10;99.90;;;;;;5080865;28;20025;-80
2022/04/09 07:07:50;;;;;;;7.95;5.35;;;4.00;99.90;;;;;;5081214;28;20048;-79
2022/04/09 07:10:16;;;;;;;9.15;6.38;;;4.00;99.90;;;;;;5079091;28;20049;-79
2022/04/09 07:12:43;;;;;;;7.60;5.93;;;3.90;99.90;;;;;;5062102;28;20031;-79
2022/04/09 07:15:09;;;;;;;8.18;6.85;;;3.90;99.90;;;;;;5080233;28;20036;-80
2022/04/09 07:17:35;;;;;;;6.65;6.00;;;4.00;99.90;;;;;;5084618;28;20028;-79
2022/04/09 07:20:05;;;;;;;8.80;6.43;;;4.10;99.90;;;;;;5081095;28;20503;-80
2022/04/09 07:22:31;;;;;;;7.80;6.60;;;4.00;99.90;;;;;;5079808;28;20016;-79
2022/04/09 07:24:57;;;;;;;8.10;5.57;;;3.90;99.90;;;;;;5081273;28;20054;-79
2022/04/09 07:27:36;;;;;;;10.43;6.50;;;3.90;99.90;;;;;;5081190;28;20033;-79
2022/04/09 07:30:06;;;;;;;8.95;6.90;;;3.80;99.90;;;;;;5062725;28;20025;-79
2022/04/09 07:32:32;;;;;;;8.60;6.63;;;3.80;99.90;;;;;;5079498;28;20074;-79
2022/04/09 07:34:58;;;;;;;8.38;6.13;;;3.80;99.90;;;;;;5079658;28;20496;-78
2022/04/09 07:37:24;;;;;;;11.30;6.75;;;3.80;99.90;;;;;;5079683;28;20032;-78
2022/04/09 07:39:50;;;;;;;11.88;6.20;;;3.80;99.90;;;;;;5081965;28;20047;-78
2022/04/09 07:42:15;;;;;;;6.95;5.80;;;4.00;99.90;;;;;;5081531;28;20020;-79
2022/04/09 07:44:41;;;;;;;7.97;6.25;;;4.30;99.90;;;;;;5079475;28;20435;-78
2022/04/09 07:47:07;;;;;;;10.40;6.50;;;4.60;99.90;;;;;;5078677;28;20435;-79
2022/04/09 07:49:32;;;;;;;7.93;6.93;;;4.80;99.90;;;;;;5063557;28;20025;-79
2022/04/09 07:51:59;;;;;;;8.52;7.53;;;4.80;99.90;;;;;;5081036;28;20033;-80
2022/04/09 07:54:26;;;;;;;7.70;6.60;;;4.90;99.90;;;;;;5061323;28;20037;-79
2022/04/09 07:56:52;;;;;;;13.68;6.30;;;5.00;99.90;;;;;;5080279;28;20017;-79
2022/04/09 07:59:18;;;;;;;8.75;6.75;;;4.90;99.90;;;;;;5079166;28;20510;-79
2022/04/09 08:01:43;;;;;;;11.48;7.63;;;4.80;99.90;;;;;;5078556;28;20025;-79
2022/04/09 08:04:09;;;;;;;11.68;7.70;;;5.10;99.90;;;;;;5079306;28;20025;-79
2022/04/09 08:06:35;;;;;;;8.98;6.82;;;5.40;99.90;;;;;;5079246;28;20025;-79
2022/04/09 08:09:00;;;;;;;9.40;7.18;;;5.70;99.90;;;;;;5060161;28;20087;-80
2022/04/09 08:11:27;;;;;;;12.57;7.72;;;5.80;99.90;;;;;;5079342;28;20058;-79
2022/04/09 08:13:53;;;;;;;9.75;6.72;;;5.90;99.90;;;;;;5076842;28;20052;-79
2022/04/09 08:16:19;;;;;;;10.63;8.57;;;5.90;99.90;;;;;;5060684;28;20040;-78
2022/04/09 08:18:45;;;;;;;9.32;7.75;;;6.10;99.90;;;;;;5079467;28;20033;-79
2022/04/09 08:21:10;;;;;;;12.38;7.70;;;6.30;99.90;;;;;;5079425;28;20055;-79
2022/04/09 08:23:36;;;;;;;10.23;7.75;;;6.50;99.90;;;;;;5081022;28;20109;-78
2022/04/09 08:26:02;;;;;;;13.52;8.45;;;6.50;99.90;;;;;;5086980;28;20080;-79
2022/04/09 08:28:31;;;;;;;12.15;7.35;;;6.50;99.90;;;;;;5082821;28;20029;-79
2022/04/09 08:30:57;;;;;;;9.43;6.90;;;6.50;99.90;;;;;;5082004;28;20016;-79
2022/04/09 08:33:22;;;;;;;11.30;7.22;;;6.40;99.90;;;;;;5065945;28;20036;-79
2022/04/09 08:35:51;;;;;;;11.40;8.63;;;6.20;99.90;;;;;;5103014;22;20445;-82
2022/04/09 08:38:17;;;;;;;11.70;8.02;;;6.50;99.90;;;;;;5101100;28;20028;-81
2022/04/09 08:40:43;;;;;;;8.60;6.45;;;6.60;99.90;;;;;;5102543;28;20586;-80
2022/04/09 08:43:10;;;;;;;7.30;6.30;;;6.70;99.90;;;;;;5083847;28;20028;-81
2022/04/09 08:45:37;;;;;;;12.23;7.30;;;6.40;99.90;;;;;;5102256;28;20442;-80
2022/04/09 08:48:06;;;;;;;9.38;7.28;;;6.40;99.90;;;;;;5103215;28;20388;-81
2022/04/09 08:50:32;;;;;;;10.63;6.57;;;6.60;99.90;;;;;;5084991;28;20104;-81
2022/04/09 08:53:05;;;;;;;9.85;5.75;;;7.20;99.90;;;;;;5090383;28;20032;-80
2022/04/09 08:55:31;;;;;;;8.48;6.00;;;7.30;99.90;;;;;;5101134;28;20024;-80
2022/04/09 08:57:56;;;;;;;9.25;5.47;;;7.30;99.90;;;;;;5100495;28;20039;-81
2022/04/09 09:00:22;;;;;;;8.70;5.53;;;7.30;99.90;;;;;;5083467;28;20026;-81
2022/04/09 09:02:50;;;;;;;10.05;6.03;;;7.00;99.90;;;;;;5083455;28;20035;-81
2022/04/09 09:05:37;;;;;;;7.75;5.47;;;6.90;99.90;;;;;;5085502;28;20020;-81
2022/04/09 09:08:05;;;;;;;5.22;4.72;;;7.40;99.90;;;;;;5077345;28;20020;-82
2022/04/09 09:10:31;;;;;;;5.97;4.13;;;8.10;99.90;;;;;;5064692;28;20024;-79
2022/04/09 09:13:05;;;;;;;7.68;3.60;;;8.60;99.90;;;;;;5082928;28;20025;-81
2022/04/09 09:15:52;;;;;;;4.25;2.90;;;9.00;99.00;;;;;;5065412;28;20028;-81
2022/04/09 09:18:28;;;;;;;4.07;3.00;;;9.00;94.00;;;;;;5083231;28;20542;-82
2022/04/09 09:20:56;;;;;;;4.93;3.28;;;8.30;94.40;;;;;;5065457;28;20444;-81
2022/04/09 09:23:26;;;;;;;5.90;3.55;;;8.00;96.90;;;;;;5064277;28;20158;-82
2022/04/09 09:25:54;;;;;;;4.55;3.28;;;8.30;97.30;;;;;;5083023;28;20453;-81
2022/04/09 09:28:28;;;;;;;3.45;2.60;;;8.60;96.40;;;;;;5064086;28;20107;-82
2022/04/09 09:30:55;;;;;;;4.28;2.90;;;8.80;95.40;;;;;;5081829;28;20076;-81
2022/04/09 09:33:21;;;;;;;3.67;2.70;;;9.10;96.50;;;;;;5081229;28;20017;-80
2022/04/09 09:35:52;;;;;;;4.82;3.13;;;9.10;96.00;;;;;;5088515;28;20054;-80
2022/04/09 09:38:23;;;;;;;2.65;2.45;;;8.80;93.40;;;;;;5093819;28;20024;-80
2022/04/09 09:40:48;;;;;;;6.80;2.97;;;8.20;92.20;;;;;;5085046;28;20020;-83
2022/04/09 09:43:15;;;;;;;5.97;2.90;;;7.80;92.00;;;;;;5103102;28;20027;-80
2022/04/09 09:45:45;;;;;;;6.10;2.67;;;7.60;95.30;;;;;;5100500;28;20020;-80
2022/04/09 09:48:29;;;;;;;3.75;2.03;;;7.80;91.80;;;;;;5081874;28;20024;-81
2022/04/09 09:50:59;;;;;;;2.13;1.88;;;8.50;81.20;;;;;;5082949;28;20103;-80
2022/04/09 09:53:28;;;;;;;5.85;1.80;;;9.00;74.20;;;;;;5083737;28;20024;-81
2022/04/09 09:55:54;;;;;;;5.15;1.40;;;9.20;68.00;;;;;;5083945;28;20020;-80
2022/04/09 09:58:21;;;;;;;1.95;1.38;;;8.80;64.30;;;;;;5100614;28;20020;-81
2022/04/09 10:00:48;;;;;;;3.00;1.67;;;8.80;63.90;;;;;;5082877;28;20059;-80
2022/04/09 10:03:16;;;;;;;3.80;1.50;;;8.80;62.30;;;;;;5082802;28;20016;-81
2022/04/09 10:05:42;;;;;;;2.35;1.60;;;8.70;62.80;;;;;;5097580;28;20019;-80
2022/04/09 10:08:09;;;;;;;4.80;2.10;;;8.50;63.00;;;;;;5091903;28;20024;-81
2022/04/09 10:10:37;;;;;;;2.92;2.03;;;8.60;63.50;;;;;;5082469;28;20038;-81
2022/04/09 10:13:07;;;;;;;2.35;1.55;;;8.50;64.00;;;;;;5100039;28;20065;-81
2022/04/09 10:15:33;;;;;;;1.63;1.50;;;8.50;63.70;;;;;;5100408;28;20054;-81
2022/04/09 10:18:00;;;;;;;2.97;1.95;;;8.40;63.20;;;;;;5100194;28;20104;-81
2022/04/09 10:20:29;;;;;;;3.70;1.88;;;8.50;62.80;;;;;;5102695;28;20020;-81
2022/04/09 10:22:59;;;;;;;1.95;1.65;;;8.60;61.30;;;;;;5084173;28;20392;-81
2022/04/09 10:25:30;;;;;;;3.42;1.33;;;8.40;61.00;;;;;;5099700;28;20020;-81
2022/04/09 10:28:06;;;;;;;5.55;1.65;;;8.90;62.00;;;;;;5081297;28;20423;-81
2022/04/09 10:30:41;;;;;;;5.70;1.48;;;9.40;59.90;;;;;;5081316;28;20375;-81
2022/04/09 10:33:23;;;;;;;3.20;1.08;;;9.70;56.40;;;;;;5099940;28;20035;-81
2022/04/09 10:35:49;;;;;;;3.25;1.35;;;9.30;55.60;;;;;;5084546;28;20046;-81
2022/04/09 10:38:20;;;;;;;2.03;1.17;;;9.00;56.60;;;;;;5095229;28;20088;-81
2022/04/09 10:40:49;;;;;;;2.88;1.52;;;8.80;56.50;;;;;;5099617;28;20028;-81
2022/04/09 10:43:24;;;;;;;1.85;1.20;;;8.70;57.50;;;;;;5096637;28;20020;-81
2022/04/09 10:46:02;;;;;;;3.17;1.55;;;8.50;58.40;;;;;;5078335;28;20067;-81
2022/04/09 10:48:42;;;;;;;5.95;1.60;;;8.60;57.80;;;;;;5097137;28;20111;-81
2022/04/09 10:51:08;;;;;;;5.57;2.00;;;8.60;58.70;;;;;;5098968;28;20077;-82
2022/04/09 10:53:36;;;;;;;2.90;1.88;;;8.60;58.40;;;;;;5079936;28;20487;-82
2022/04/09 10:56:11;;;;;;;1.38;1.27;;;8.40;59.80;;;;;;5098153;28;20392;-81
2022/04/09 10:59:06;;;;;;;5.47;1.40;;;8.40;61.20;;;;;;5096858;28;20024;-82
2022/04/09 11:01:52;;;;;;;1.45;1.35;;;9.30;60.80;;;;;;5101933;28;20024;-82
2022/04/09 11:04:36;;;;;;;2.35;1.17;;;9.90;57.60;;;;;;5101682;28;20042;-82
2022/04/09 11:07:06;;;;;;;5.03;1.40;;;9.90;56.10;;;;;;5096250;28;20024;-81
2022/04/09 11:09:44;;;;;;;3.25;1.05;;;9.70;54.00;;;;;;5100230;28;20024;-82
2022/04/09 11:12:11;;;;;;;3.25;1.38;;;9.80;54.20;;;;;;5086236;28;20050;-81
2022/04/09 11:14:50;;;;;;;3.15;1.10;;;10.00;53.70;;;;;;5104208;28;20035;-81
2022/04/09 11:17:29;;;;;;;1.98;1.30;;;10.20;53.10;;;;;;5082343;28;20159;-81
2022/04/09 11:20:01;;;;;;;1.83;1.13;;;10.30;51.90;;;;;;5109862;28;20020;-81
2022/04/09 11:22:40;;;;;;;2.00;1.00;;;10.80;52.50;;;;;;5109233;28;20024;-80
2022/04/09 11:25:08;;;;;;;2.25;1.30;;;11.10;51.30;;;;;;5101858;28;20027;-81
2022/04/09 11:27:35;;;;;;;6.30;1.60;;;10.60;51.70;;;;;;5103375;28;20031;-81
2022/04/09 11:30:01;;;;;;;2.58;1.15;;;9.60;52.80;;;;;;5083771;28;20035;-81
2022/04/09 11:32:28;;;;;;;5.35;1.25;;;8.80;55.50;;;;;;5100059;28;20028;-82
2022/04/09 11:34:57;;;;;;;4.18;1.38;;;8.40;57.50;;;;;;5100298;28;20469;-81
2022/04/09 11:37:26;;;;;;;3.15;1.05;;;8.30;56.10;;;;;;5093360;28;20091;-81
2022/04/09 11:39:52;;;;;;;4.70;1.10;;;8.60;55.60;;;;;;5101494;28;20016;-82
2022/04/09 11:42:18;;;;;;;3.63;1.20;;;9.10;54.30;;;;;;5100777;28;20030;-82
2022/04/09 11:44:44;;;;;;;2.28;0.90;;;9.20;54.20;;;;;;5082358;28;20384;-82
2022/04/09 11:47:26;;;;;;;2.85;1.67;;;8.90;55.60;;;;;;5100212;28;20024;-82
2022/04/09 11:49:53;;;;;;;1.88;1.17;;;8.60;56.40;;;;;;5080509;28;20048;-81
2022/04/09 11:52:27;;;;;;;4.15;1.30;;;8.20;58.30;;;;;;5099097;28;20049;-81
2022/04/09 11:54:54;;;;;;;2.00;1.20;;;8.10;58.30;;;;;;5080877;28;20480;-82
2022/04/09 11:57:20;;;;;;;2.38;1.25;;;8.20;58.40;;;;;;5099525;28;20024;-82
2022/04/09 11:59:54;;;;;;;4.30;1.48;;;8.80;56.60;;;;;;5083425;28;20020;-82
2022/04/09 12:02:25;;;;;;;3.50;1.13;;;9.00;54.50;;;;;;5104786;28;20024;-82
2022/04/09 12:04:53;;;;;;;3.60;1.00;;;9.00;54.10;;;;;;5083592;28;20043;-81
2022/04/09 12:07:19;;;;;;;1.63;0.90;;;9.20;53.90;;;;;;5092232;28;20130;-82
2022/04/09 12:09:47;;;;;;;1.95;1.27;;;9.10;53.60;;;;;;5101129;28;20020;-81
2022/04/09 12:12:13;;;;;;;4.10;1.00;;;8.90;51.80;;;;;;5084584;28;20028;-81
2022/04/09 12:14:42;;;;;;;2.67;0.80;;;8.70;52.90;;;;;;5105969;28;20024;-80
2022/04/09 12:17:13;;;;;;;4.72;0.95;;;8.70;53.30;;;;;;5105887;28;20031;-81
2022/04/09 12:19:43;;;;;;;2.95;0.68;;;8.80;52.30;;;;;;5107267;28;20024;-81
2022/04/09 12:22:20;;;;;;;2.97;0.95;;;9.20;50.10;;;;;;5102640;28;20013;-80
2022/04/09 12:24:54;;;;;;;7.13;1.15;;;9.60;49.90;;;;;;5107477;28;20399;-83
2022/04/09 12:27:44;;;;;;;3.85;0.82;;;10.00;50.00;;;;;;5119640;28;20041;-80
2022/04/09 12:30:11;;;;;;;3.28;1.20;;;10.50;49.80;;;;;;5117527;28;20100;-81
2022/04/09 12:32:39;;;;;;;3.53;0.93;;;11.00;48.30;;;;;;5116832;28;20028;-81
2022/04/09 12:35:06;;;;;;;2.63;0.80;;;11.30;48.00;;;;;;5110439;28;20027;-82
2022/04/09 12:37:46;;;;;;;1.83;0.80;;;11.60;46.90;;;;;;5099754;28;20090;-81
2022/04/09 12:40:16;;;;;;;2.10;0.77;;;11.70;46.80;;;;;;5082693;28;20090;-81
2022/04/09 12:42:42;;;;;;;3.58;1.00;;;11.80;45.40;;;;;;5063572;28;20021;-81
2022/04/09 12:45:16;;;;;;;2.20;0.90;;;11.50;45.00;;;;;;5082079;28;20073;-81
2022/04/09 12:47:52;;;;;;;5.03;0.90;;;10.80;45.70;;;;;;5080481;28;20031;-80
2022/04/09 12:50:20;;;;;;;3.53;1.20;;;10.40;46.90;;;;;;5081686;28;20078;-81
2022/04/09 12:52:46;;;;;;;5.50;0.82;;;10.30;48.10;;;;;;5082035;28;20021;-81
2022/04/09 12:55:15;;;;;;;4.28;1.00;;;10.30;48.60;;;;;;5064304;28;20550;-80
2022/04/09 12:57:41;;;;;;;3.08;0.90;;;9.70;49.20;;;;;;5081495;28;20033;-80